SLCO/CIJ METAR and TAF weather

Enter ICAO airport designator
Station Type Date Time Source
SLCO METAR 2022/01/17 20:00 UTC NOAA

SLCO 172000Z 28005KT 9999 SCT030 35/25 Q1007


Station Type Date Time Source
SLCO Decoded METAR 2022/01/17 20:00 UTC NOAA

Cobija, Bolivia (SLCO) 11-02S 068-47W 260M
Jan 17, 2022 - 03:00 PM EST / 2022.01.17 2000 UTC
Wind: from the W (280 degrees) at 6 MPH (5 KT):0
Visibility: greater than 7 mile(s):0
Sky conditions: partly cloudy
Temperature: 95 F (35 C)
Heat index: 109.8 F (43.2 C):1
Dew Point: 77 F (25 C)
Relative Humidity: 56%
Pressure (altimeter): 29.74 in. Hg (1007 hPa)
ob: SLCO 172000Z 28005KT 9999 SCT030 35/25 Q1007
cycle: 20

Station Type Date Time Source
SLCO TAF 2022/01/18 06:42 UTC NOAA

TAF TAF SLCO 180400Z 1806/1906 00000KT 9999 SCT006 SCT070 TX35/1820Z TN22/1810Z
BECMG 1812/1815 33006KT SCT017 BKN080 PROB30
TEMPO 1818/1821 34015KT 6000 SHRA FEW020CB
BECMG 1822/1902 00000KT FEW017 SCT070

Example: see airport list